createdAt,value
2022-12-23T00:01:37.928Z,58.80
2022-12-23T00:04:15.075Z,63.80
2022-12-23T00:06:51.659Z,71.80
2022-12-23T00:09:29.093Z,62.50
2022-12-23T00:12:22.980Z,63.00
2022-12-23T00:15:08.720Z,57.40
2022-12-23T00:17:48.657Z,54.70
2022-12-23T00:20:26.201Z,55.20
2022-12-23T00:23:09.351Z,59.60
2022-12-23T00:25:50.061Z,64.40
2022-12-23T00:28:28.484Z,63.80
2022-12-23T00:31:09.213Z,63.80
2022-12-23T00:33:47.329Z,60.00
2022-12-23T00:36:27.736Z,52.60
2022-12-23T00:39:22.576Z,48.60
2022-12-23T00:42:30.603Z,53.40
2022-12-23T00:45:18.007Z,60.30
2022-12-23T00:48:11.788Z,57.40
2022-12-23T00:50:47.855Z,60.40
2022-12-23T00:53:24.725Z,68.60
2022-12-23T00:56:01.245Z,60.70
2022-12-23T00:58:38.503Z,54.10
2022-12-23T01:01:47.021Z,57.30
2022-12-23T01:04:41.191Z,54.30
2022-12-23T01:07:17.999Z,52.50
2022-12-23T01:09:54.671Z,48.90
2022-12-23T01:12:31.649Z,59.30
2022-12-23T01:15:10.581Z,60.90
2022-12-23T01:17:47.933Z,60.30
2022-12-23T01:20:24.435Z,55.30
2022-12-23T01:23:01.278Z,53.90
2022-12-23T01:25:38.189Z,51.00
2022-12-23T01:28:14.834Z,57.30
2022-12-23T01:30:51.364Z,55.20
2022-12-23T01:33:28.642Z,55.60
2022-12-23T01:36:11.093Z,58.40
2022-12-23T01:38:47.902Z,57.20
2022-12-23T01:41:45.772Z,61.40
2022-12-23T01:45:16.480Z,57.20
2022-12-23T01:47:59.740Z,52.20
2022-12-23T01:50:42.841Z,54.10
2022-12-23T01:53:26.204Z,57.10
2022-12-23T01:56:07.619Z,57.00
2022-12-23T01:58:46.775Z,55.50
2022-12-23T02:01:41.251Z,53.50
2022-12-23T02:04:23.097Z,57.60
2022-12-23T02:07:16.751Z,50.20
2022-12-23T02:09:53.301Z,46.40
2022-12-23T02:12:51.817Z,48.30
2022-12-23T02:16:01.460Z,50.60
2022-12-23T02:19:16.374Z,55.00
2022-12-23T02:22:21.777Z,46.90
2022-12-23T02:25:40.325Z,46.60
2022-12-23T02:28:48.090Z,44.00
2022-12-23T02:31:37.207Z,45.00
2022-12-23T02:34:22.869Z,53.00
2022-12-23T02:37:07.299Z,46.30
2022-12-23T02:39:54.383Z,45.00
2022-12-23T02:42:39.547Z,42.80
2022-12-23T02:45:23.802Z,42.70
2022-12-23T02:48:07.559Z,41.90
2022-12-23T02:50:47.348Z,42.80
2022-12-23T02:53:33.997Z,47.30
2022-12-23T02:56:15.394Z,48.20
2022-12-23T02:58:56.788Z,47.90
2022-12-23T03:01:37.754Z,45.10
2022-12-23T03:04:14.388Z,46.80
2022-12-23T03:06:55.269Z,45.60
2022-12-23T03:09:44.885Z,47.40
2022-12-23T03:12:41.430Z,45.30
2022-12-23T03:15:35.950Z,51.30
2022-12-23T03:18:24.780Z,53.40
2022-12-23T03:21:08.135Z,50.80
2022-12-23T03:23:55.683Z,48.30
2022-12-23T03:26:42.435Z,43.70
2022-12-23T03:29:28.169Z,42.50
2022-12-23T03:32:10.579Z,46.10
2022-12-23T03:34:53.085Z,48.50
2022-12-23T03:37:34.809Z,48.60
2022-12-23T03:40:20.804Z,47.50
2022-12-23T03:43:04.838Z,46.10
2022-12-23T03:45:47.696Z,46.60
2022-12-23T03:48:31.021Z,47.50
2022-12-23T03:51:14.937Z,45.80
2022-12-23T03:53:59.395Z,48.10
2022-12-23T03:56:43.021Z,47.50
2022-12-23T03:59:25.783Z,43.10
2022-12-23T04:02:14.124Z,44.30
2022-12-23T04:05:16.071Z,47.90
2022-12-23T04:08:01.321Z,47.20
2022-12-23T04:10:38.450Z,50.60
2022-12-23T04:13:15.107Z,50.70
2022-12-23T04:15:52.666Z,56.00
2022-12-23T04:18:28.751Z,49.00
2022-12-23T04:21:06.048Z,47.80
2022-12-23T04:23:42.902Z,50.50
2022-12-23T04:26:19.707Z,43.40
2022-12-23T04:28:56.605Z,44.90
2022-12-23T04:31:33.053Z,50.80
2022-12-23T04:34:10.659Z,46.10
2022-12-23T04:36:47.356Z,44.00
2022-12-23T04:39:24.746Z,52.40
2022-12-23T04:42:01.485Z,49.60
2022-12-23T04:44:38.410Z,45.90
2022-12-23T04:47:14.846Z,43.40
2022-12-23T04:49:51.957Z,45.00
2022-12-23T04:52:29.157Z,45.20
2022-12-23T04:55:05.980Z,48.50
2022-12-23T04:57:42.899Z,50.30
2022-12-23T05:00:26.110Z,42.80
2022-12-23T05:03:03.576Z,46.60
2022-12-23T05:05:45.405Z,44.50
2022-12-23T05:08:23.307Z,42.90
2022-12-23T05:10:59.898Z,48.40
2022-12-23T05:13:36.837Z,46.80
2022-12-23T05:16:16.764Z,47.50
2022-12-23T05:18:53.328Z,47.60
2022-12-23T05:21:30.042Z,45.80
2022-12-23T05:24:08.958Z,50.70
2022-12-23T05:26:48.082Z,46.00
2022-12-23T05:29:24.939Z,43.40
2022-12-23T05:32:01.764Z,52.30
2022-12-23T05:34:38.411Z,51.80
2022-12-23T05:37:15.193Z,47.00
2022-12-23T05:39:52.126Z,49.50
2022-12-23T05:42:29.145Z,46.80
2022-12-23T05:45:06.855Z,48.10
2022-12-23T05:47:43.386Z,47.40
2022-12-23T05:50:22.130Z,51.60
2022-12-23T05:52:59.245Z,50.20
2022-12-23T05:55:35.572Z,49.30
2022-12-23T05:58:12.438Z,51.30
2022-12-23T06:00:49.615Z,48.80
2022-12-23T06:03:27.114Z,51.40
2022-12-23T06:06:04.601Z,44.30
2022-12-23T06:08:42.377Z,43.90
2022-12-23T06:11:18.958Z,46.70
2022-12-23T06:13:55.771Z,50.40
2022-12-23T06:16:32.601Z,53.80
2022-12-23T06:19:10.997Z,51.50
2022-12-23T06:21:47.037Z,48.10
2022-12-23T06:24:23.529Z,48.10
2022-12-23T06:26:59.804Z,48.40
2022-12-23T06:29:36.239Z,46.40
2022-12-23T06:32:15.321Z,47.00
2022-12-23T06:34:53.684Z,51.00
2022-12-23T06:37:30.075Z,47.30
2022-12-23T06:40:06.871Z,50.30
2022-12-23T06:42:42.959Z,49.00
2022-12-23T06:45:21.103Z,46.70
2022-12-23T06:47:57.375Z,44.80
2022-12-23T06:50:33.327Z,48.10
2022-12-23T06:53:09.669Z,49.70
2022-12-23T06:55:46.115Z,54.60
2022-12-23T06:58:22.550Z,49.60
2022-12-23T07:00:59.560Z,53.60
2022-12-23T07:03:36.124Z,46.60
2022-12-23T07:06:14.907Z,44.20
2022-12-23T07:08:51.185Z,45.20
2022-12-23T07:11:28.388Z,44.10
2022-12-23T07:14:05.158Z,43.80
2022-12-23T07:16:42.798Z,47.40
2022-12-23T07:19:20.143Z,48.70
2022-12-23T07:21:56.923Z,50.50
2022-12-23T07:24:34.341Z,50.60
2022-12-23T07:27:11.873Z,46.10
2022-12-23T07:29:48.514Z,49.70
2022-12-23T07:32:25.742Z,44.80
2022-12-23T07:35:02.241Z,48.40
2022-12-23T07:37:39.019Z,45.50
2022-12-23T07:40:20.337Z,50.30
2022-12-23T07:43:00.084Z,55.00
2022-12-23T07:45:37.635Z,46.40
2022-12-23T07:48:15.043Z,44.80
2022-12-23T07:50:51.536Z,41.90
2022-12-23T07:53:28.842Z,38.20
2022-12-23T07:56:06.689Z,44.40
2022-12-23T07:58:43.803Z,44.70
2022-12-23T08:01:20.388Z,36.70
2022-12-23T08:03:57.013Z,37.70
2022-12-23T08:06:34.226Z,35.80
2022-12-23T08:09:12.068Z,35.30
2022-12-23T08:11:48.480Z,31.30
2022-12-23T08:14:25.643Z,32.90
2022-12-23T08:17:02.142Z,32.60
2022-12-23T08:19:39.044Z,32.60
2022-12-23T08:22:14.975Z,34.50
2022-12-23T08:24:52.835Z,30.50
2022-12-23T08:27:30.219Z,31.70
2022-12-23T08:30:07.868Z,31.10
2022-12-23T08:32:44.583Z,33.70
2022-12-23T08:35:21.929Z,36.10
2022-12-23T08:37:59.233Z,37.10
2022-12-23T08:40:36.036Z,39.30
2022-12-23T08:43:12.548Z,36.30
2022-12-23T08:45:49.803Z,35.60
2022-12-23T08:48:26.773Z,35.90
2022-12-23T08:51:08.839Z,35.20
2022-12-23T08:53:46.756Z,32.20
2022-12-23T08:56:26.883Z,35.60
2022-12-23T08:59:03.323Z,35.00
2022-12-23T09:01:41.522Z,39.10
2022-12-23T09:04:18.600Z,39.60
2022-12-23T09:06:54.001Z,38.80
2022-12-23T09:09:29.848Z,39.00
2022-12-23T09:12:07.220Z,41.70
2022-12-23T09:14:43.672Z,32.10
2022-12-23T09:17:20.111Z,36.80
2022-12-23T09:19:56.923Z,38.30
2022-12-23T09:22:34.775Z,35.00
2022-12-23T09:25:14.385Z,35.50
2022-12-23T09:27:51.278Z,35.20
2022-12-23T09:30:28.010Z,37.80
2022-12-23T09:33:04.614Z,39.30
2022-12-23T09:35:40.819Z,40.00
2022-12-23T09:38:17.076Z,35.40
2022-12-23T09:40:53.689Z,35.40
2022-12-23T09:43:45.315Z,39.50
2022-12-23T09:46:27.846Z,35.70
2022-12-23T09:49:12.858Z,37.40
2022-12-23T09:51:49.547Z,33.70
2022-12-23T09:54:29.133Z,38.30
2022-12-23T09:57:12.668Z,44.40
2022-12-23T10:00:08.471Z,46.00
2022-12-23T10:03:23.204Z,45.90
2022-12-23T10:06:11.663Z,47.50
2022-12-23T10:08:55.807Z,43.90
2022-12-23T10:11:39.501Z,49.00
2022-12-23T10:14:25.456Z,45.60
2022-12-23T10:17:07.354Z,43.10
2022-12-23T10:19:49.394Z,50.40
2022-12-23T10:22:35.611Z,60.10
2022-12-23T10:25:19.801Z,59.00
2022-12-23T10:27:55.891Z,58.80
2022-12-23T10:31:05.696Z,68.60
2022-12-23T10:33:50.324Z,60.70
2022-12-23T10:36:42.161Z,57.30
2022-12-23T10:39:30.302Z,55.80
2022-12-23T10:42:23.527Z,53.30
2022-12-23T10:45:30.873Z,51.20
2022-12-23T10:48:28.959Z,54.30
2022-12-23T10:51:12.517Z,54.10
2022-12-23T10:53:54.502Z,59.00
2022-12-23T10:56:33.616Z,56.60
2022-12-23T10:59:14.528Z,61.20
2022-12-23T11:02:00.340Z,57.20
2022-12-23T11:04:41.694Z,57.20
2022-12-23T11:10:28.732Z,50.60
2022-12-23T11:13:05.817Z,51.00
2022-12-23T11:15:44.719Z,53.00
2022-12-23T11:18:26.210Z,54.20
2022-12-23T11:21:19.552Z,47.70
2022-12-23T11:24:20.058Z,49.90
2022-12-23T11:27:05.571Z,47.10
2022-12-23T11:29:48.351Z,54.00
2022-12-23T11:32:28.868Z,53.70
2022-12-23T11:35:05.507Z,47.50
2022-12-23T11:37:46.703Z,47.30
2022-12-23T11:40:32.227Z,49.80
2022-12-23T11:43:16.880Z,43.20
2022-12-23T11:46:28.695Z,43.40
2022-12-23T11:49:34.843Z,41.80
2022-12-23T11:52:20.175Z,43.50
2022-12-23T11:54:59.996Z,40.00
2022-12-23T11:57:45.283Z,40.50
2022-12-23T12:00:32.595Z,40.90
2022-12-23T12:03:18.642Z,37.00
2022-12-23T12:06:00.927Z,37.00
2022-12-23T12:08:42.832Z,39.80
2022-12-23T12:11:28.426Z,42.50
2022-12-23T12:14:09.245Z,39.50
2022-12-23T12:17:01.615Z,40.20
2022-12-23T12:19:49.921Z,40.20
2022-12-23T12:22:42.736Z,37.50
2022-12-23T12:25:39.561Z,39.40
2022-12-23T12:28:23.616Z,38.00
2022-12-23T12:31:14.564Z,39.30
2022-12-23T12:34:02.250Z,35.20
2022-12-23T12:36:51.079Z,33.00
2022-12-23T12:39:36.792Z,35.00
2022-12-23T12:42:23.756Z,34.20
2022-12-23T12:45:12.806Z,41.90
2022-12-23T12:48:16.005Z,43.60
2022-12-23T12:51:08.084Z,40.40
2022-12-23T12:54:02.743Z,38.00
2022-12-23T12:56:49.570Z,33.10
2022-12-23T12:59:29.165Z,33.60
2022-12-23T13:02:47.921Z,33.50
2022-12-23T13:05:54.463Z,33.90
2022-12-23T13:09:04.772Z,31.70
2022-12-23T13:11:52.832Z,32.10
2022-12-23T13:14:46.675Z,40.90
2022-12-23T13:17:28.988Z,39.30
2022-12-23T13:20:17.806Z,35.70
2022-12-23T13:23:26.937Z,35.20
2022-12-23T13:26:12.873Z,37.90
2022-12-23T13:28:59.074Z,37.30
2022-12-23T13:31:51.127Z,37.70
2022-12-23T13:34:44.039Z,32.50
2022-12-23T13:37:35.987Z,33.30
2022-12-23T13:40:33.604Z,32.10
2022-12-23T13:43:18.763Z,29.80
2022-12-23T13:45:58.191Z,28.10
2022-12-23T13:48:50.619Z,27.30
2022-12-23T13:51:36.645Z,28.10
2022-12-23T13:54:30.558Z,27.80
2022-12-23T17:33:36.872Z,50.50
2022-12-23T17:36:14.882Z,56.70
2022-12-23T17:38:51.503Z,44.70
2022-12-23T17:41:33.030Z,43.70
2022-12-23T17:44:10.553Z,47.40
2022-12-23T17:46:46.769Z,48.20
2022-12-23T17:49:22.598Z,42.00
2022-12-23T17:51:59.260Z,45.40
2022-12-23T17:54:36.551Z,44.60
2022-12-23T17:57:23.080Z,51.10
2022-12-23T18:00:01.406Z,48.70
2022-12-23T18:02:38.804Z,46.30
2022-12-23T18:05:25.865Z,43.30
2022-12-23T18:08:06.365Z,40.20
2022-12-23T18:10:44.609Z,42.40
2022-12-23T18:13:24.253Z,41.40
2022-12-23T18:16:00.349Z,45.50
2022-12-23T18:18:45.895Z,51.50
2022-12-23T18:21:29.332Z,49.20
2022-12-23T18:24:09.279Z,47.20
2022-12-23T18:26:45.541Z,43.90
2022-12-23T18:29:22.337Z,46.00
2022-12-23T18:31:58.843Z,44.40
2022-12-23T18:34:35.990Z,47.80
2022-12-23T18:37:14.315Z,55.10
2022-12-23T18:39:51.452Z,49.90
2022-12-23T18:42:27.783Z,49.20
2022-12-23T18:45:04.357Z,44.90
2022-12-23T18:47:41.131Z,44.40
2022-12-23T18:50:19.737Z,47.20
2022-12-23T18:52:55.859Z,46.10
2022-12-23T18:55:32.570Z,49.30
2022-12-23T18:58:09.028Z,51.00
2022-12-23T19:00:46.343Z,43.10
2022-12-23T19:03:30.668Z,46.30
2022-12-23T19:06:10.897Z,48.20
2022-12-23T19:08:49.196Z,46.80
2022-12-23T19:11:27.727Z,40.90
2022-12-23T19:14:05.578Z,51.00
2022-12-23T19:16:46.064Z,47.40
2022-12-23T19:19:28.080Z,45.80
2022-12-23T19:22:04.684Z,44.70
2022-12-23T19:24:58.159Z,46.10
2022-12-23T19:27:39.024Z,40.20
2022-12-23T19:30:21.311Z,42.10
2022-12-23T19:32:59.936Z,40.40
2022-12-23T19:35:36.470Z,46.90
2022-12-23T19:38:14.762Z,48.90
2022-12-23T19:41:01.523Z,47.60
2022-12-23T19:43:38.194Z,42.00
2022-12-23T19:46:17.885Z,46.50
2022-12-23T19:48:57.109Z,41.70
2022-12-23T19:51:33.189Z,45.00
2022-12-23T19:54:10.365Z,41.10
2022-12-23T19:56:47.536Z,45.90
2022-12-23T19:59:24.113Z,46.70
2022-12-23T20:02:00.855Z,43.10
2022-12-23T20:04:37.539Z,44.20
2022-12-23T20:07:14.371Z,41.60
2022-12-23T20:09:51.288Z,44.60
2022-12-23T20:12:28.530Z,44.40
2022-12-23T20:15:05.524Z,42.10
2022-12-23T20:17:43.026Z,43.20
2022-12-23T20:20:20.832Z,49.50
2022-12-23T20:22:57.353Z,50.40
2022-12-23T20:25:34.013Z,47.00
2022-12-23T20:28:12.116Z,43.10
2022-12-23T20:30:50.477Z,40.00
2022-12-23T20:33:28.934Z,38.60
2022-12-23T20:36:05.587Z,43.30
2022-12-23T20:38:45.907Z,41.10
2022-12-23T20:41:26.009Z,44.60
2022-12-23T20:44:33.811Z,45.80
2022-12-23T20:46:59.608Z,43.60
2022-12-23T20:49:36.328Z,39.40
2022-12-23T20:52:13.989Z,34.80
2022-12-23T20:54:49.852Z,37.30
2022-12-23T20:57:26.995Z,35.50
2022-12-23T21:00:05.074Z,39.80
2022-12-23T21:02:42.573Z,41.60
2022-12-23T21:05:19.996Z,42.20
2022-12-23T21:07:56.697Z,39.00
2022-12-23T21:10:32.768Z,41.10
2022-12-23T21:13:09.713Z,40.10
2022-12-23T21:15:46.015Z,38.00
2022-12-23T21:18:23.062Z,42.40
2022-12-23T21:21:03.550Z,37.90
2022-12-23T21:23:45.432Z,39.80
2022-12-23T21:26:24.963Z,46.60
2022-12-23T21:29:06.467Z,50.30
2022-12-23T21:31:44.476Z,39.80
2022-12-23T21:34:21.536Z,43.80
2022-12-23T21:36:58.554Z,46.20
2022-12-23T21:39:36.423Z,43.20
2022-12-23T21:42:13.077Z,40.40
2022-12-23T21:44:49.945Z,38.10
2022-12-23T21:47:27.237Z,37.20
2022-12-23T21:50:03.281Z,39.50
2022-12-23T21:52:40.938Z,47.40
2022-12-23T21:55:19.651Z,49.70
2022-12-23T21:57:57.932Z,47.30
2022-12-23T22:00:35.629Z,48.90
2022-12-23T22:03:12.621Z,52.40
2022-12-23T22:05:48.884Z,47.70
2022-12-23T22:08:26.167Z,43.20
2022-12-23T22:11:02.759Z,45.10
2022-12-23T22:13:38.868Z,56.60
2022-12-23T22:16:21.044Z,51.40
2022-12-23T22:18:58.805Z,58.20
2022-12-23T22:21:37.255Z,51.10
2022-12-23T22:24:14.385Z,49.50
2022-12-23T22:26:50.263Z,42.50
2022-12-23T22:29:26.815Z,44.90
2022-12-23T22:32:03.216Z,46.00
2022-12-23T22:34:39.810Z,44.70
2022-12-23T22:37:17.055Z,46.60
2022-12-23T22:39:53.944Z,48.10
2022-12-23T22:42:30.517Z,42.80
2022-12-23T22:45:09.583Z,43.20
2022-12-23T22:47:47.112Z,50.40
2022-12-23T22:50:23.648Z,44.60
2022-12-23T22:53:00.572Z,42.20
2022-12-23T22:55:36.964Z,48.70
2022-12-23T22:58:13.038Z,44.80
2022-12-23T23:00:50.338Z,44.40
2022-12-23T23:03:28.117Z,44.70
2022-12-23T23:06:09.107Z,46.80
2022-12-23T23:08:46.923Z,41.70
2022-12-23T23:11:23.907Z,41.20
2022-12-23T23:14:01.107Z,40.90
2022-12-23T23:16:37.842Z,43.40
2022-12-23T23:19:17.202Z,56.90
2022-12-23T23:21:54.696Z,51.60
2022-12-23T23:24:32.166Z,44.40
2022-12-23T23:27:09.064Z,48.20
2022-12-23T23:29:45.933Z,44.30
2022-12-23T23:32:22.596Z,44.80
2022-12-23T23:35:02.994Z,41.20
2022-12-23T23:37:43.450Z,46.30
2022-12-23T23:40:21.968Z,55.00
2022-12-23T23:42:58.718Z,47.90
2022-12-23T23:45:35.297Z,50.70
2022-12-23T23:48:15.103Z,51.10
2022-12-23T23:50:52.191Z,45.70
2022-12-23T23:53:29.074Z,51.60
2022-12-23T23:56:11.340Z,43.60
2022-12-23T23:58:48.481Z,45.90
